»·PEaware :: N104LA KSBA-KBUR

N104LA :: KSBA-KBUR

FLIGHT INFORMATION

Flight Status: Arrived
Operator: Privately registered:
United States
More flights under this callsign
Pilot: Bill D. (18789)
Aircraft: CESSNA 172 SKYHAWK
(C172)
More flights by this aircraft type
Origin: KSBA Santa Barbara Mun
United States
Destination: KBUR Bob Hope-Burbank
United States
More flights between these airports :: More routes between these airports
Route: +
File this flight plan on PilotEdge
Remarks: CAT8
Altitude:
(Current/Filed)
7,500ft
Speed:
(Current/Filed)
0kts
Departed: 01-Feb-19 01:34 PM
Arrived: 01-Feb-19 02:06 PM
Distance/Time
Traveled:
75nm/0:32
Distance/Time
To Go:
Arrived

Flight Plot

Page will automatically refresh every two minutes.


Map Options




Map Legend


Flown Route
Filed Route
Departure Airport
Arrival Airport
Navaid (VOR, NDB)
Fix

Horizontal Profiles

Position Reports

Time Latitude Longitude Heading Altitude Ground
Speed
01-Feb-19 13:15 34.421852 -119.835528 350 12ft 0kts
01-Feb-19 13:16 34.421852 -119.835528 350 12ft 0kts
01-Feb-19 13:17 34.421852 -119.835528 350 12ft 0kts
01-Feb-19 13:18 34.421852 -119.835528 350 12ft 0kts
01-Feb-19 13:19 34.421852 -119.835528 350 12ft 0kts
01-Feb-19 13:20 34.421852 -119.835528 350 12ft 0kts
01-Feb-19 13:21 34.421852 -119.835528 350 12ft 0kts
01-Feb-19 13:22 34.424112 -119.837291 331 12ft 14kts
01-Feb-19 13:23 34.427278 -119.838365 343 12ft 26kts
01-Feb-19 13:24 34.430620 -119.839677 262 12ft 0kts
01-Feb-19 13:25 34.430620 -119.839677 262 12ft 0kts
01-Feb-19 13:26 34.430620 -119.839677 262 12ft 0kts
01-Feb-19 13:28 34.430620 -119.839677 262 12ft 0kts
01-Feb-19 13:28 34.430620 -119.839677 262 12ft 0kts
01-Feb-19 13:29 34.430620 -119.839677 262 12ft 0kts
01-Feb-19 13:30 34.430620 -119.839677 262 12ft 0kts
01-Feb-19 13:31 34.430620 -119.839677 262 12ft 0kts
01-Feb-19 13:32 34.430357 -119.840181 204 12ft 6kts
01-Feb-19 13:33 34.409969 -119.833386 164 624ft 104kts
01-Feb-19 13:34 34.380406 -119.820936 160 1499ft 132kts
01-Feb-19 13:35 34.341287 -119.807765 152 1499ft 153kts
01-Feb-19 13:36 34.332128 -119.763895 99 2280ft 126kts
01-Feb-19 13:37 34.326797 -119.724041 95 3199ft 117kts
01-Feb-19 13:38 34.322972 -119.684620 94 4039ft 117kts
01-Feb-19 13:39 34.325170 -119.645258 82 4855ft 117kts
01-Feb-19 13:40 34.327894 -119.605462 82 5657ft 118kts
01-Feb-19 13:41 34.330614 -119.565707 82 6429ft 117kts
01-Feb-19 13:42 34.333304 -119.526280 82 7160ft 117kts
01-Feb-19 13:43 34.336037 -119.487204 82 7555ft 136kts
01-Feb-19 13:44 34.339921 -119.436969 82 7504ft 162kts
01-Feb-19 13:45 34.344326 -119.381512 82 7518ft 168kts
01-Feb-19 13:46 34.347915 -119.324359 100 7506ft 172kts
01-Feb-19 13:47 34.336088 -119.267838 100 7466ft 176kts
01-Feb-19 13:48 34.326977 -119.210055 98 7483ft 174kts
01-Feb-19 13:50 34.318421 -119.152316 98 7483ft 174kts
01-Feb-19 13:51 34.309902 -119.094368 98 7483ft 174kts
01-Feb-19 13:52 34.301425 -119.036783 98 7483ft 174kts
01-Feb-19 13:53 34.292847 -118.978681 98 7483ft 173kts
01-Feb-19 13:54 34.285071 -118.923238 98 7476ft 162kts
01-Feb-19 13:55 34.277113 -118.868882 98 6981ft 167kts
01-Feb-19 13:56 34.268769 -118.812674 98 6315ft 170kts
01-Feb-19 13:57 34.260469 -118.757086 98 5667ft 164kts
01-Feb-19 13:58 34.252642 -118.705174 98 5284ft 148kts
01-Feb-19 13:59 34.245023 -118.654472 98 4598ft 159kts
01-Feb-19 14:00 34.236997 -118.601181 99 3895ft 161kts
01-Feb-19 14:01 34.228880 -118.547534 99 3211ft 161kts
01-Feb-19 14:02 34.221142 -118.496913 100 2992ft 136kts
01-Feb-19 14:03 34.207803 -118.457295 108 2459ft 115kts
01-Feb-19 14:04 34.199558 -118.417583 97 1850ft 112kts
01-Feb-19 14:05 34.198114 -118.380850 89 1186ft 103kts
01-Feb-19 14:06 34.197787 -118.359011 90 780ft 25kts
01-Feb-19 14:07 34.199468 -118.358561 326 780ft 18kts
01-Feb-19 14:08 34.199760 -118.359413 275 780ft 0kts
01-Feb-19 14:08 34.199705 -118.360176 209 780ft 0kts
01-Feb-19 14:10 34.199705 -118.360176 209 780ft 0kts
01-Feb-19 14:11 34.199705 -118.360176 209 780ft 0kts

Navigation Log

Ident Type
Flight plan parsing failed, navigation log unavailable